Sunday, November 19, 2017, 8:56 PM EST
Back to Local

KNHK, Nas Patuxent River Md

Location: Patuxent River, MD, United States Lat: 38.3
Local Time: 8:56 PM EST ( 1:56 GMT) Lon: -76.4
Time Zone: US/Eastern Elev: 39 ft

Show me the last for .
Show Decoded

2017-11-19 19:52 METAR KNHK 200052Z AUTO 30010KT 10SM SCT070 07/M04 A2990 RMK AO2 SLP124
                 T00721039 $ =
2017-11-19 18:52 METAR KNHK 192352Z AUTO 32018G27KT 10SM SCT075 08/M03 A2987 RMK AO2 PK WND
                 31031/2314 SLP115 T00831033 10133 20083 51035 $ =
2017-11-19 17:52 METAR KNHK 192252Z 30019G28KT 10SM FEW060 08/M04 A2984 RMK AO2 PK WND 31029/2157
                 SLP105 T00831039 =
2017-11-19 16:52 METAR KNHK 192152Z 32019G28KT 10SM FEW060 09/M02 A2981 RMK AO2 PK WND 33031/2113
                 SLP095 T00891022 =
2017-11-19 15:52 METAR KNHK 192052Z 32016KT 10SM FEW042 11/M01 A2977 RMK AO2 PK WND 32027/1953
                 SLP080 T01061011 53024 =
2017-11-19 14:52 METAR KNHK 191952Z 32018G27KT 10SM FEW042 11/M02 A2973 RMK AO2 PK WND 33032/1918
                 SLP066 T01111017 =
2017-11-19 12:52 METAR KNHK 191752Z 31016G25KT 10SM FEW042 13/M01 A2969 RMK AO2 PK WND 32031/1700
                 SLP056 T01281006 10133 20106 50008 =
2017-11-19 11:52 METAR KNHK 191652Z 31020G27KT 10SM FEW035 FEW250 13/00 A2970 RMK AO2 PK WND
                 30031/1620 SLP057 T01280000 =
2017-11-19 10:52 METAR KNHK 191552Z 30022G31KT 10SM FEW015 FEW250 12/01 A2970 RMK AO2 PK WND
                 31034/1527 SLP056 T01170006 =
2017-11-19 09:52 METAR KNHK 191452Z 32023G32KT 10SM FEW015 FEW250 12/0 A2967 RMK AO2 PK WND
                 31033/1434 SLP047 T01170006 =
2017-11-19 08:52 METAR KNHK 191352Z 31021G34KT 10SM FEW015 FEW250 11/0 A2964 RMK AO2 PK WND
                 31037/1329 SLP037 T01110006 =
2017-11-19 07:13 METAR KNHK 191213Z 30025G36KT 10SM FEW015 SCT070 SCT250 12/04 A2954 RMK AO2 PK
                 WND 31036/1213 PRESRR T01220039 =

Support USWX by starting your Amazon purchase here.